»·PEaware :: N75232 KSNA-KLAX

N75232 :: KSNA-KLAX

FLIGHT INFORMATION

Flight Status: Arrived
Operator: Privately registered:
United States
More flights under this callsign
Pilot: Daniel B. (28719)
Aircraft: CESSNA 172 SKYHAWK
(C172)
More flights by this aircraft type
Origin: KSNA John Wayne-Orange Co
United States
Destination: KLAX Los Angeles Intl
United States
More flights between these airports :: More routes between these airports
Route: +
File this flight plan on PilotEdge
Remarks:
Altitude:
(Current/Filed)
2,400ft
Speed:
(Current/Filed)
0kts
Departed: 23-Apr-20 02:25 PM
Arrived: 23-Apr-20 02:50 PM
Distance/Time
Traveled:
30nm/0:25
Distance/Time
To Go:
Arrived

Flight Plot

Page will automatically refresh every two minutes.


Map Options




Map Legend


Flown Route
Filed Route
Departure Airport
Arrival Airport
Navaid (VOR, NDB)
Fix

Horizontal Profiles

Position Reports

Time Latitude Longitude Heading Altitude Ground
Speed
23-Apr-20 14:12 33.676318 -117.870840 212 60ft 0kts
23-Apr-20 14:13 33.676318 -117.870840 212 60ft 0kts
23-Apr-20 14:14 33.676318 -117.870840 212 60ft 0kts
23-Apr-20 14:15 33.676318 -117.870840 212 60ft 0kts
23-Apr-20 14:16 33.676318 -117.870840 212 60ft 0kts
23-Apr-20 14:17 33.676318 -117.870840 212 60ft 0kts
23-Apr-20 14:18 33.676316 -117.870842 214 60ft 0kts
23-Apr-20 14:19 33.676257 -117.869969 30 60ft 1kts
23-Apr-20 14:20 33.678902 -117.868297 27 60ft 22kts
23-Apr-20 14:21 33.681164 -117.866327 119 60ft 0kts
23-Apr-20 14:22 33.681164 -117.866327 119 60ft 0kts
23-Apr-20 14:23 33.681081 -117.866155 119 60ft 8kts
23-Apr-20 14:24 33.677134 -117.866046 201 95ft 63kts
23-Apr-20 14:25 33.667133 -117.884923 248 844ft 80kts
23-Apr-20 14:26 33.662594 -117.911059 246 1640ft 82kts
23-Apr-20 14:27 33.663098 -117.938167 316 2436ft 93kts
23-Apr-20 14:28 33.682526 -117.953135 316 3004ft 103kts
23-Apr-20 14:29 33.703657 -117.974042 314 2997ft 118kts
23-Apr-20 14:30 33.723566 -117.996293 308 3013ft 117kts
23-Apr-20 14:31 33.741709 -118.018357 308 3012ft 117kts
23-Apr-20 14:32 33.759864 -118.041148 306 3009ft 117kts
23-Apr-20 14:33 33.774384 -118.065773 294 3000ft 115kts
23-Apr-20 14:34 33.786135 -118.092548 294 2996ft 114kts
23-Apr-20 14:35 33.797442 -118.117016 295 3011ft 113kts
23-Apr-20 14:36 33.809799 -118.140042 297 3014ft 112kts
23-Apr-20 14:37 33.821034 -118.163360 294 2984ft 113kts
23-Apr-20 14:38 33.832191 -118.187265 300 2743ft 122kts
23-Apr-20 14:39 33.845848 -118.210870 302 2338ft 122kts
23-Apr-20 14:40 33.858635 -118.234383 299 1943ft 122kts
23-Apr-20 14:41 33.873104 -118.254578 314 1582ft 123kts
23-Apr-20 14:42 33.889461 -118.271666 312 1303ft 117kts
23-Apr-20 14:43 33.902894 -118.290112 306 1151ft 112kts
23-Apr-20 14:44 33.916332 -118.308279 308 1154ft 110kts
23-Apr-20 14:45 33.930057 -118.326565 306 1145ft 111kts
23-Apr-20 14:46 33.940147 -118.344683 283 736ft 75kts
23-Apr-20 14:47 33.939465 -118.362238 261 499ft 68kts
23-Apr-20 14:48 33.937649 -118.379721 260 189ft 68kts
23-Apr-20 14:49 33.936550 -118.390434 257 100ft 19kts
23-Apr-20 14:50 33.935574 -118.390744 142 102ft 0kts
23-Apr-20 14:51 33.935574 -118.390744 142 102ft 0kts
23-Apr-20 14:52 33.934352 -118.390629 179 102ft 14kts
23-Apr-20 14:53 33.933842 -118.390623 177 102ft 0kts
23-Apr-20 14:54 33.933842 -118.390623 177 102ft 0kts
23-Apr-20 14:55 33.933842 -118.390623 177 102ft 0kts
23-Apr-20 14:56 33.933842 -118.390623 177 102ft 0kts
23-Apr-20 14:57 33.933842 -118.390623 177 102ft 0kts
23-Apr-20 14:58 33.933842 -118.390623 177 102ft 0kts
23-Apr-20 14:59 33.933842 -118.390623 177 102ft 0kts
23-Apr-20 15:00 33.933842 -118.390623 177 102ft 0kts
23-Apr-20 15:01 33.933842 -118.390623 177 102ft 0kts
23-Apr-20 15:02 33.933842 -118.390623 177 102ft 0kts
23-Apr-20 15:03 33.933842 -118.390623 177 102ft 0kts

Navigation Log

Ident Type
Flight plan parsing failed, navigation log unavailable